Terminal Aerodrome Forecast
Issued by NWS Wakefield, VA

Home | Current Version | Previous Version | Text Only | Print | Product List | Glossary On
Versions: 1 2 3 4 5 6 7 8 9 10 11 12 13 14 15 16 17 18 19 20 21 22 23 24
092
FTUS41 KAKQ 081821 AAA
TAFECG
TAF AMD
KECG 081821Z 0818/0918 28008KT P6SM SCT015 OVC035
      TEMPO 0818/0819 BKN015
     FM081900 28008KT P6SM BKN045
     FM090100 30015KT P6SM SCT200
     FM090600 31013G22KT P6SM SKC=

USA.gov is the U.S. government's official web portal to all federal, state and local government web resources and services.